createdAt,value
2023-02-08T00:00:43.940Z,3.00
2023-02-08T00:03:11.291Z,2.90
2023-02-08T00:05:38.469Z,2.80
2023-02-08T00:08:05.621Z,2.70
2023-02-08T00:10:32.381Z,2.60
2023-02-08T00:12:59.275Z,2.50
2023-02-08T00:15:26.116Z,2.40
2023-02-08T00:17:52.914Z,2.40
2023-02-08T00:20:19.756Z,2.30
2023-02-08T00:22:46.574Z,2.10
2023-02-08T00:25:13.388Z,2.10
2023-02-08T00:27:40.243Z,2.00
2023-02-08T00:30:08.149Z,2.00
2023-02-08T00:32:34.945Z,1.90
2023-02-08T00:35:01.796Z,1.90
2023-02-08T00:37:28.613Z,1.80
2023-02-08T00:39:55.492Z,1.80
2023-02-08T00:42:23.764Z,1.80
2023-02-08T00:44:50.529Z,1.70
2023-02-08T00:47:17.324Z,1.70
2023-02-08T00:49:44.120Z,1.60
2023-02-08T00:52:10.887Z,1.60
2023-02-08T00:54:37.650Z,1.60
2023-02-08T00:57:05.193Z,1.50
2023-02-08T00:59:32.019Z,1.50
2023-02-08T01:01:59.011Z,1.50
2023-02-08T01:04:25.872Z,1.40
2023-02-08T01:06:52.677Z,1.40
2023-02-08T01:09:19.457Z,1.40
2023-02-08T01:11:49.408Z,1.40
2023-02-08T01:14:16.322Z,1.40
2023-02-08T01:16:43.096Z,1.30
2023-02-08T01:19:09.938Z,1.30
2023-02-08T01:21:38.415Z,1.20
2023-02-08T01:24:05.521Z,1.20
2023-02-08T01:26:32.579Z,1.20
2023-02-08T01:28:59.563Z,1.20
2023-02-08T01:31:31.647Z,1.20
2023-02-08T01:34:00.408Z,1.20
2023-02-08T01:36:27.730Z,1.10
2023-02-08T01:38:54.648Z,1.10
2023-02-08T01:41:26.575Z,1.10
2023-02-08T01:44:01.030Z,1.10
2023-02-08T01:46:28.241Z,1.00
2023-02-08T01:48:56.515Z,1.00
2023-02-08T01:51:29.117Z,1.00
2023-02-08T01:53:56.012Z,0.90
2023-02-08T01:56:31.912Z,0.90
2023-02-08T01:59:01.734Z,0.90
2023-02-08T02:01:29.031Z,0.90
2023-02-08T02:03:56.068Z,0.80
2023-02-08T02:06:24.712Z,0.80
2023-02-08T02:08:56.524Z,0.80
2023-02-08T02:11:23.335Z,0.80
2023-02-08T02:13:54.016Z,0.80
2023-02-08T02:16:20.990Z,0.80
2023-02-08T02:18:47.785Z,0.80
2023-02-08T02:21:54.709Z,0.80
2023-02-08T02:25:08.144Z,0.80
2023-02-08T02:27:59.450Z,0.80
2023-02-08T02:30:37.507Z,0.80
2023-02-08T02:33:24.283Z,0.80
2023-02-08T02:36:01.180Z,0.70
2023-02-08T02:38:51.030Z,0.70
2023-02-08T02:41:44.942Z,0.70
2023-02-08T02:45:07.282Z,0.70
2023-02-08T02:47:39.837Z,0.60
2023-02-08T02:50:18.578Z,0.60
2023-02-08T02:52:48.703Z,0.50
2023-02-08T02:55:16.748Z,0.50
2023-02-08T02:57:43.904Z,0.50
2023-02-08T03:00:11.484Z,0.40
2023-02-08T03:02:38.390Z,0.40
2023-02-08T03:05:06.607Z,0.30
2023-02-08T03:07:43.266Z,0.30
2023-02-08T03:10:19.096Z,0.30
2023-02-08T03:12:51.873Z,0.30
2023-02-08T03:15:53.295Z,0.20
2023-02-08T03:18:24.072Z,0.20
2023-02-08T03:20:57.154Z,0.20
2023-02-08T03:23:46.084Z,0.20
2023-02-08T03:26:22.090Z,0.20
2023-02-08T03:28:51.729Z,0.10
2023-02-08T03:31:32.922Z,0.10
2023-02-08T03:34:16.863Z,0.10
2023-02-08T03:36:55.763Z,0.10
2023-02-08T03:39:26.233Z,0.10
2023-02-08T03:41:55.524Z,0.00
2023-02-08T03:44:26.051Z,0.00
2023-02-08T03:47:02.268Z,0.00
2023-02-08T03:49:31.386Z,0.00
2023-02-08T03:51:59.272Z,0.00
2023-02-08T03:54:26.824Z,0.00
2023-02-08T03:57:01.603Z,0.00
2023-02-08T03:59:30.955Z,-0.10
2023-02-08T04:01:59.385Z,-0.10
2023-02-08T04:04:29.335Z,-0.10
2023-02-08T04:06:56.150Z,-0.10
2023-02-08T04:09:22.879Z,-0.20
2023-02-08T04:11:49.651Z,-0.20
2023-02-08T04:14:16.579Z,-0.20
2023-02-08T04:16:43.479Z,-0.20
2023-02-08T04:19:10.202Z,-0.20
2023-02-08T04:21:36.999Z,-0.20
2023-02-08T04:24:03.910Z,-0.20
2023-02-08T04:26:30.672Z,-0.30
2023-02-08T04:28:57.468Z,-0.30
2023-02-08T04:31:24.431Z,-0.30
2023-02-08T04:33:51.304Z,-0.30
2023-02-08T04:36:18.332Z,-0.30
2023-02-08T04:38:45.249Z,-0.30
2023-02-08T04:41:12.023Z,-0.30
2023-02-08T04:43:38.823Z,-0.30
2023-02-08T04:46:05.698Z,-0.30
2023-02-08T04:48:32.488Z,-0.30
2023-02-08T04:51:00.816Z,-0.40
2023-02-08T04:53:27.595Z,-0.40
2023-02-08T04:55:54.384Z,-0.40
2023-02-08T04:58:21.144Z,-0.40
2023-02-08T05:00:47.884Z,-0.40
2023-02-08T05:03:15.102Z,-0.40
2023-02-08T05:05:41.845Z,-0.50
2023-02-08T05:08:08.643Z,-0.50
2023-02-08T05:10:35.441Z,-0.50
2023-02-08T05:13:02.314Z,-0.50
2023-02-08T05:15:29.134Z,-0.50
2023-02-08T05:17:55.869Z,-0.50
2023-02-08T05:20:22.712Z,-0.50
2023-02-08T05:22:49.478Z,-0.40
2023-02-08T05:25:18.020Z,-0.50
2023-02-08T05:27:44.939Z,-0.40
2023-02-08T05:30:11.978Z,-0.50
2023-02-08T05:32:38.939Z,-0.50
2023-02-08T05:35:06.106Z,-0.50
2023-02-08T05:37:32.940Z,-0.60
2023-02-08T05:39:59.743Z,-0.60
2023-02-08T05:42:27.098Z,-0.70
2023-02-08T05:44:53.902Z,-0.70
2023-02-08T05:47:20.672Z,-0.70
2023-02-08T05:49:47.465Z,-0.70
2023-02-08T05:52:14.200Z,-0.70
2023-02-08T05:54:40.978Z,-0.70
2023-02-08T05:57:07.779Z,-0.70
2023-02-08T05:59:34.576Z,-0.80
2023-02-08T06:02:01.314Z,-0.80
2023-02-08T06:04:28.147Z,-0.80
2023-02-08T06:06:55.040Z,-0.80
2023-02-08T06:09:22.016Z,-0.80
2023-02-08T06:11:48.765Z,-0.70
2023-02-08T06:14:15.596Z,-0.70
2023-02-08T06:16:42.350Z,-0.60
2023-02-08T06:19:09.219Z,-0.60
2023-02-08T06:21:35.999Z,-0.60
2023-02-08T06:24:03.877Z,-0.70
2023-02-08T06:26:30.632Z,-0.70
2023-02-08T06:28:59.116Z,-0.70
2023-02-08T06:31:26.011Z,-0.70
2023-02-08T06:33:54.340Z,-0.70
2023-02-08T06:36:21.102Z,-0.70
2023-02-08T06:38:48.607Z,-0.80
2023-02-08T06:41:17.115Z,-0.80
2023-02-08T06:43:43.869Z,-0.80
2023-02-08T06:46:10.731Z,-0.90
2023-02-08T06:48:37.724Z,-0.80
2023-02-08T06:51:04.627Z,-0.90
2023-02-08T06:53:31.478Z,-0.90
2023-02-08T06:55:58.382Z,-0.90
2023-02-08T06:58:25.194Z,-0.90
2023-02-08T07:00:51.988Z,-0.90
2023-02-08T07:03:18.834Z,-0.90
2023-02-08T07:05:59.023Z,-0.90
2023-02-08T07:08:31.156Z,-1.00
2023-02-08T07:10:57.978Z,-1.00
2023-02-08T07:13:24.788Z,-1.00
2023-02-08T07:15:51.627Z,-1.00
2023-02-08T07:18:18.370Z,-1.00
2023-02-08T07:20:45.187Z,-1.00
2023-02-08T07:23:11.913Z,-1.00
2023-02-08T07:25:38.660Z,-1.00
2023-02-08T07:28:05.616Z,-1.00
2023-02-08T07:30:32.469Z,-1.00
2023-02-08T07:32:59.348Z,-0.90
2023-02-08T07:35:26.067Z,-0.90
2023-02-08T07:37:52.914Z,-0.90
2023-02-08T07:40:19.861Z,-0.80
2023-02-08T07:42:46.758Z,-0.80
2023-02-08T07:45:24.435Z,-0.80
2023-02-08T07:47:51.202Z,-0.80
2023-02-08T07:50:18.092Z,-0.70
2023-02-08T07:52:46.325Z,-0.60
2023-02-08T07:55:17.002Z,-0.50
2023-02-08T07:57:47.684Z,-0.40
2023-02-08T08:00:15.408Z,-0.30
2023-02-08T08:02:42.348Z,-0.30
2023-02-08T08:05:09.164Z,-0.20
2023-02-08T08:07:36.016Z,-0.10
2023-02-08T08:10:03.284Z,-0.10
2023-02-08T08:12:30.031Z,-0.10
2023-02-08T08:14:56.856Z,0.00
2023-02-08T08:17:23.655Z,0.00
2023-02-08T08:19:50.496Z,0.10
2023-02-08T08:22:17.294Z,0.20
2023-02-08T08:24:44.160Z,0.20
2023-02-08T08:27:10.976Z,0.30
2023-02-08T08:29:38.056Z,0.40
2023-02-08T08:32:05.010Z,0.50
2023-02-08T08:34:31.917Z,0.60
2023-02-08T08:36:59.328Z,0.70
2023-02-08T08:39:27.321Z,0.80
2023-02-08T08:41:57.265Z,0.90
2023-02-08T08:44:24.184Z,1.10
2023-02-08T08:46:51.096Z,1.20
2023-02-08T08:49:18.061Z,1.40
2023-02-08T08:51:44.802Z,1.50
2023-02-08T08:54:11.572Z,1.60
2023-02-08T08:56:38.371Z,1.70
2023-02-08T08:59:05.179Z,1.90
2023-02-08T09:01:33.722Z,2.10
2023-02-08T09:04:01.611Z,2.20
2023-02-08T09:06:28.493Z,2.40
2023-02-08T09:08:55.283Z,2.50
2023-02-08T09:11:22.165Z,2.60
2023-02-08T09:13:52.874Z,2.70
2023-02-08T09:16:20.063Z,2.80
2023-02-08T09:18:46.835Z,2.80
2023-02-08T09:21:15.570Z,2.90
2023-02-08T09:23:42.614Z,3.00
2023-02-08T09:26:12.941Z,3.20
2023-02-08T09:28:39.759Z,3.30
2023-02-08T09:31:10.732Z,3.40
2023-02-08T09:33:37.659Z,3.60
2023-02-08T09:36:05.056Z,3.70
2023-02-08T09:38:33.749Z,3.90
2023-02-08T09:41:24.401Z,4.00
2023-02-08T09:43:54.258Z,4.20
2023-02-08T09:46:22.640Z,4.40
2023-02-08T09:48:52.755Z,4.50
2023-02-08T09:51:47.775Z,4.70
2023-02-08T09:54:28.358Z,4.80
2023-02-08T09:56:55.298Z,5.00
2023-02-08T09:59:27.096Z,5.10
2023-02-08T10:02:11.451Z,5.20
2023-02-08T10:04:49.845Z,5.40
2023-02-08T10:07:16.654Z,5.50
2023-02-08T10:09:43.493Z,5.70
2023-02-08T10:12:36.552Z,5.90
2023-02-08T10:15:12.613Z,6.10
2023-02-08T10:18:05.766Z,6.40
2023-02-08T10:20:51.488Z,6.60
2023-02-08T10:23:24.064Z,6.90
2023-02-08T10:26:41.359Z,7.20
2023-02-08T10:29:40.352Z,7.50
2023-02-08T10:32:28.280Z,7.80
2023-02-08T10:34:59.077Z,8.10
2023-02-08T10:37:36.238Z,8.30
2023-02-08T10:40:36.085Z,8.50
2023-02-08T10:43:35.889Z,8.70
2023-02-08T10:46:08.687Z,8.90
2023-02-08T10:48:41.534Z,9.00
2023-02-08T10:51:12.112Z,9.20
2023-02-08T10:53:38.912Z,9.40
2023-02-08T10:56:05.761Z,9.70
2023-02-08T10:58:32.613Z,9.90
2023-02-08T11:00:59.604Z,10.00
2023-02-08T11:03:27.996Z,10.30
2023-02-08T11:05:55.137Z,10.50
2023-02-08T11:08:26.150Z,10.70
2023-02-08T11:10:57.199Z,10.90
2023-02-08T11:13:24.956Z,11.10
2023-02-08T11:15:59.059Z,11.30
2023-02-08T11:18:33.304Z,11.40
2023-02-08T11:21:10.552Z,11.50
2023-02-08T11:23:42.325Z,11.60
2023-02-08T11:26:18.380Z,11.80
2023-02-08T11:28:45.440Z,11.90
2023-02-08T11:31:20.185Z,12.10
2023-02-08T11:34:09.173Z,12.40
2023-02-08T11:36:36.659Z,12.60
2023-02-08T11:39:17.349Z,12.80
2023-02-08T11:41:47.691Z,12.90
2023-02-08T11:44:21.249Z,13.10
2023-02-08T11:46:50.825Z,13.30
2023-02-08T11:49:25.846Z,13.60
2023-02-08T11:51:53.151Z,13.80
2023-02-08T11:54:41.153Z,14.00
2023-02-08T11:57:22.508Z,14.20
2023-02-08T11:59:50.809Z,14.50
2023-02-08T12:02:37.736Z,14.60
2023-02-08T12:05:10.022Z,14.80
2023-02-08T12:07:57.692Z,15.00
2023-02-08T12:10:47.970Z,15.30
2023-02-08T12:13:20.907Z,15.50
2023-02-08T12:16:06.150Z,15.60
2023-02-08T12:18:41.923Z,15.80
2023-02-08T12:21:21.619Z,15.90
2023-02-08T12:24:03.417Z,16.10
2023-02-08T12:27:11.323Z,16.30
2023-02-08T12:29:49.337Z,16.50
2023-02-08T12:32:29.865Z,16.70
2023-02-08T12:35:29.648Z,16.70
2023-02-08T12:38:51.420Z,16.80
2023-02-08T12:41:31.074Z,17.00
2023-02-08T12:44:18.882Z,17.30
2023-02-08T12:47:12.925Z,17.50
2023-02-08T12:49:54.689Z,17.70
2023-02-08T12:52:37.263Z,17.90
2023-02-08T12:55:18.360Z,18.10
2023-02-08T12:57:49.601Z,18.10
2023-02-08T13:00:19.550Z,18.30
2023-02-08T13:03:07.060Z,18.60
2023-02-08T13:05:37.604Z,18.80
2023-02-08T13:08:23.386Z,18.90
2023-02-08T13:10:53.058Z,18.80
2023-02-08T13:13:24.510Z,18.60
2023-02-08T13:16:30.090Z,18.60
2023-02-08T13:19:35.273Z,18.80
2023-02-08T13:22:02.191Z,19.10
2023-02-08T13:24:38.142Z,19.30
2023-02-08T13:27:08.629Z,19.40
2023-02-08T13:29:36.143Z,19.50
2023-02-08T13:32:09.026Z,19.60
2023-02-08T13:34:45.026Z,19.70
2023-02-08T13:37:49.609Z,19.70
2023-02-08T13:40:28.286Z,19.70
2023-02-08T13:43:03.959Z,19.90
2023-02-08T13:45:34.887Z,19.90
2023-02-08T13:48:06.375Z,19.80
2023-02-08T13:50:39.307Z,19.60
2023-02-08T13:53:06.359Z,19.70
2023-02-08T13:55:33.766Z,19.80
2023-02-08T13:58:26.645Z,20.00
2023-02-08T14:00:54.932Z,20.20
2023-02-08T14:03:23.618Z,20.00
2023-02-08T14:05:51.290Z,19.90
2023-02-08T14:08:38.882Z,19.60
2023-02-08T14:11:16.464Z,19.30
2023-02-08T14:13:51.338Z,19.00
2023-02-08T14:16:34.231Z,18.80
2023-02-08T14:19:02.823Z,18.70
2023-02-08T14:21:39.621Z,18.80
2023-02-08T14:24:22.382Z,18.70
2023-02-08T14:26:49.472Z,18.70
2023-02-08T14:29:24.450Z,18.70
2023-02-08T14:31:51.259Z,18.50
2023-02-08T14:34:22.953Z,18.30
2023-02-08T14:36:59.350Z,18.20
2023-02-08T14:39:33.329Z,18.00
2023-02-08T14:42:08.821Z,17.70
2023-02-08T14:44:39.054Z,17.50
2023-02-08T14:47:26.878Z,17.40
2023-02-08T14:50:16.150Z,17.30
2023-02-08T14:52:46.321Z,17.20
2023-02-08T14:55:26.646Z,17.10
2023-02-08T14:57:57.725Z,17.20
2023-02-08T15:00:30.352Z,17.60
2023-02-08T15:02:57.628Z,17.90
2023-02-08T15:05:29.305Z,18.10
2023-02-08T15:07:59.446Z,18.10
2023-02-08T15:10:26.830Z,18.10
2023-02-08T15:12:54.958Z,18.10
2023-02-08T15:15:26.124Z,18.20
2023-02-08T15:17:53.065Z,18.10
2023-02-08T15:20:27.745Z,18.00
2023-02-08T15:23:05.292Z,17.90
2023-02-08T15:25:33.533Z,17.60
2023-02-08T15:28:14.492Z,17.40
2023-02-08T15:30:41.614Z,17.40
2023-02-08T15:33:10.406Z,17.40
2023-02-08T15:35:37.335Z,17.20
2023-02-08T15:38:06.974Z,16.60
2023-02-08T15:40:34.649Z,15.70
2023-02-08T15:43:07.492Z,15.00
2023-02-08T15:45:36.546Z,14.30
2023-02-08T15:48:03.577Z,13.70
2023-02-08T15:50:30.517Z,13.10
2023-02-08T15:53:02.014Z,12.50
2023-02-08T15:55:38.854Z,12.00
2023-02-08T15:58:08.803Z,11.50
2023-02-08T16:00:36.343Z,11.20
2023-02-08T16:03:08.400Z,10.80
2023-02-08T16:05:35.513Z,10.60
2023-02-08T16:08:02.681Z,10.30
2023-02-08T16:10:40.729Z,10.10
2023-02-08T16:13:21.587Z,10.00
2023-02-08T16:15:52.048Z,9.90
2023-02-08T16:18:35.773Z,9.70
2023-02-08T16:21:04.715Z,9.60
2023-02-08T16:23:33.336Z,9.50
2023-02-08T16:26:23.771Z,9.40
2023-02-08T16:29:01.260Z,9.40
2023-02-08T16:31:30.236Z,9.20
2023-02-08T16:34:17.108Z,9.10
2023-02-08T16:36:46.292Z,9.10
2023-02-08T16:39:19.125Z,8.90
2023-02-08T16:42:14.179Z,8.80
2023-02-08T16:44:42.420Z,8.70
2023-02-08T16:47:34.763Z,8.60
2023-02-08T16:50:01.584Z,8.50
2023-02-08T16:52:28.386Z,8.30
2023-02-08T16:54:55.445Z,8.30
2023-02-08T16:57:22.214Z,8.20
2023-02-08T16:59:48.965Z,8.10
2023-02-08T17:02:15.705Z,8.00
2023-02-08T17:04:42.514Z,7.90
2023-02-08T17:07:18.429Z,7.90
2023-02-08T17:09:45.328Z,7.80
2023-02-08T17:12:21.811Z,7.70
2023-02-08T17:14:49.441Z,7.70
2023-02-08T17:17:16.268Z,7.70
2023-02-08T17:19:44.478Z,7.60
2023-02-08T17:22:11.288Z,7.60
2023-02-08T17:24:39.289Z,7.50
2023-02-08T17:27:06.248Z,7.40
2023-02-08T17:29:33.046Z,7.30
2023-02-08T17:31:59.824Z,7.30
2023-02-08T17:34:27.647Z,7.20
2023-02-08T17:36:54.445Z,7.20
2023-02-08T17:39:21.195Z,7.10
2023-02-08T17:41:47.980Z,7.00
2023-02-08T17:44:15.226Z,7.00
2023-02-08T17:46:42.546Z,7.00
2023-02-08T17:49:09.269Z,6.90
2023-02-08T17:51:36.020Z,6.80
2023-02-08T17:54:06.229Z,6.70
2023-02-08T17:56:35.446Z,6.70
2023-02-08T17:59:05.325Z,6.60
2023-02-08T18:01:32.309Z,6.50
2023-02-08T18:03:59.285Z,6.50
2023-02-08T18:06:26.229Z,6.40
2023-02-08T18:08:54.230Z,6.40
2023-02-08T18:11:21.169Z,6.30
2023-02-08T18:13:48.552Z,6.30
2023-02-08T18:16:35.569Z,6.20
2023-02-08T18:19:03.591Z,6.20
2023-02-08T18:21:33.087Z,6.10
2023-02-08T18:24:03.633Z,6.10
2023-02-08T18:26:33.440Z,6.00
2023-02-08T18:29:02.006Z,5.90
2023-02-08T18:31:29.090Z,5.90
2023-02-08T18:33:56.151Z,5.90
2023-02-08T18:36:23.182Z,5.80
2023-02-08T18:38:51.673Z,5.80
2023-02-08T18:41:26.163Z,5.80
2023-02-08T18:43:54.810Z,6.00
2023-02-08T18:46:22.337Z,6.20
2023-02-08T18:48:49.611Z,6.40
2023-02-08T18:51:19.568Z,6.70
2023-02-08T18:53:52.959Z,7.10
2023-02-08T18:56:24.098Z,7.30
2023-02-08T18:58:52.193Z,7.30
2023-02-08T19:01:21.137Z,7.10
2023-02-08T19:03:48.370Z,7.00
2023-02-08T19:06:16.956Z,6.80
2023-02-08T19:08:44.620Z,6.70
2023-02-08T19:11:19.745Z,6.50
2023-02-08T19:13:46.745Z,6.40
2023-02-08T19:16:13.913Z,6.30
2023-02-08T19:18:40.725Z,6.20
2023-02-08T19:21:09.268Z,6.10
2023-02-08T19:23:36.284Z,6.00
2023-02-08T19:26:08.497Z,6.00
2023-02-08T19:28:35.657Z,6.00
2023-02-08T19:31:06.840Z,5.90
2023-02-08T19:33:33.684Z,5.90
2023-02-08T19:36:07.448Z,5.80
2023-02-08T19:38:34.167Z,5.70
2023-02-08T19:41:01.012Z,5.60
2023-02-08T19:43:27.914Z,5.50
2023-02-08T19:45:54.694Z,5.30
2023-02-08T19:48:22.085Z,5.20
2023-02-08T19:50:59.182Z,5.10
2023-02-08T19:53:26.405Z,5.10
2023-02-08T19:56:10.793Z,5.00
2023-02-08T19:58:37.909Z,4.90
2023-02-08T20:01:15.641Z,4.80
2023-02-08T20:03:42.534Z,4.80
2023-02-08T20:06:16.133Z,4.70
2023-02-08T20:08:43.056Z,4.70
2023-02-08T20:11:21.056Z,4.70
2023-02-08T20:13:47.996Z,4.70
2023-02-08T20:16:14.895Z,4.70
2023-02-08T20:18:41.713Z,4.70
2023-02-08T20:21:08.575Z,4.80
2023-02-08T20:23:35.651Z,4.90
2023-02-08T20:26:05.572Z,4.90
2023-02-08T20:28:32.385Z,4.90
2023-02-08T20:30:59.273Z,4.90
2023-02-08T20:33:27.715Z,4.90
2023-02-08T20:35:55.399Z,4.90
2023-02-08T20:38:22.182Z,4.90
2023-02-08T20:40:49.355Z,4.80
2023-02-08T20:43:16.132Z,4.70
2023-02-08T20:45:43.380Z,4.60
2023-02-08T20:48:10.551Z,4.60
2023-02-08T20:50:37.455Z,4.50
2023-02-08T20:53:04.311Z,4.50
2023-02-08T20:55:31.086Z,4.40
2023-02-08T20:57:57.889Z,4.40
2023-02-08T21:00:33.495Z,4.40
2023-02-08T21:03:07.171Z,4.40
2023-02-08T21:05:34.015Z,4.60
2023-02-08T21:08:00.973Z,4.60
2023-02-08T21:10:27.769Z,4.60
2023-02-08T21:12:54.611Z,4.60
2023-02-08T21:15:21.568Z,4.50
2023-02-08T21:17:48.424Z,4.40
2023-02-08T21:20:15.421Z,4.30
2023-02-08T21:22:42.315Z,4.20
2023-02-08T21:25:09.523Z,4.20
2023-02-08T21:27:36.414Z,4.10
2023-02-08T21:30:03.886Z,4.00
2023-02-08T21:32:30.683Z,3.90
2023-02-08T21:34:57.485Z,3.80
2023-02-08T21:37:24.358Z,3.80
2023-02-08T21:39:51.146Z,3.70
2023-02-08T21:42:17.891Z,3.70
2023-02-08T21:44:44.707Z,3.80
2023-02-08T21:47:11.692Z,3.80
2023-02-08T21:49:57.369Z,3.90
2023-02-08T21:52:42.773Z,3.90
2023-02-08T21:55:09.644Z,3.90
2023-02-08T21:57:40.881Z,3.90
2023-02-08T22:00:10.245Z,3.80
2023-02-08T22:02:39.647Z,3.80
2023-02-08T22:05:06.664Z,3.80
2023-02-08T22:07:44.816Z,3.80
2023-02-08T22:10:12.348Z,3.80
2023-02-08T22:12:41.086Z,3.80
2023-02-08T22:15:12.008Z,3.80
2023-02-08T22:17:38.938Z,3.80
2023-02-08T22:20:06.362Z,3.70
2023-02-08T22:22:33.152Z,3.70
2023-02-08T22:24:59.943Z,3.70
2023-02-08T22:27:27.632Z,3.70
2023-02-08T22:29:54.500Z,3.70
2023-02-08T22:32:21.371Z,3.70
2023-02-08T22:34:48.341Z,3.70
2023-02-08T22:37:15.313Z,3.60
2023-02-08T22:39:42.538Z,3.60
2023-02-08T22:42:13.288Z,3.60
2023-02-08T22:44:41.143Z,3.60
2023-02-08T22:47:08.318Z,3.60
2023-02-08T22:49:35.409Z,3.60
2023-02-08T22:52:02.332Z,3.60
2023-02-08T22:54:29.146Z,3.60
2023-02-08T22:56:55.971Z,3.60
2023-02-08T22:59:22.763Z,3.70
2023-02-08T23:01:49.541Z,3.70
2023-02-08T23:04:16.307Z,3.80
2023-02-08T23:06:43.190Z,3.90
2023-02-08T23:09:11.210Z,4.20
2023-02-08T23:11:38.097Z,4.40
2023-02-08T23:14:04.824Z,4.50
2023-02-08T23:16:32.630Z,4.60
2023-02-08T23:18:59.730Z,4.70
2023-02-08T23:21:26.524Z,4.60
2023-02-08T23:23:53.316Z,4.60
2023-02-08T23:26:20.750Z,4.60
2023-02-08T23:28:49.977Z,4.50
2023-02-08T23:31:16.877Z,4.50
2023-02-08T23:33:43.836Z,4.40
2023-02-08T23:36:12.808Z,4.40
2023-02-08T23:38:39.656Z,4.40
2023-02-08T23:41:08.402Z,4.30
2023-02-08T23:43:35.373Z,4.30
2023-02-08T23:46:07.024Z,4.30
2023-02-08T23:48:33.954Z,4.30
2023-02-08T23:51:01.624Z,4.30
2023-02-08T23:53:30.317Z,4.40
2023-02-08T23:56:22.536Z,4.50
2023-02-08T23:58:50.645Z,4.50
